createdAt,value
2023-01-27T00:00:39.100Z,41.21
2023-01-27T00:03:09.978Z,41.56
2023-01-27T00:05:38.095Z,41.43
2023-01-27T00:08:06.270Z,40.85
2023-01-27T00:10:34.413Z,41.33
2023-01-27T00:13:19.661Z,41.53
2023-01-27T00:15:47.844Z,41.72
2023-01-27T00:18:17.293Z,41.32
2023-01-27T00:21:02.894Z,41.17
2023-01-27T00:23:48.177Z,41.16
2023-01-27T00:26:16.851Z,40.98
2023-01-27T00:28:45.434Z,41.20
2023-01-27T00:31:32.136Z,40.86
2023-01-27T00:34:09.603Z,40.86
2023-01-27T00:36:38.218Z,41.55
2023-01-27T00:39:06.389Z,40.83
2023-01-27T00:41:34.976Z,41.19
2023-01-27T00:44:03.100Z,40.79
2023-01-27T00:46:31.307Z,40.88
2023-01-27T00:48:59.374Z,41.59
2023-01-27T00:51:28.863Z,40.90
2023-01-27T00:53:57.048Z,41.44
2023-01-27T00:56:25.181Z,40.95
2023-01-27T00:58:53.262Z,40.95
2023-01-27T01:01:21.331Z,41.55
2023-01-27T01:03:49.485Z,41.64
2023-01-27T01:06:18.283Z,40.91
2023-01-27T01:08:48.587Z,41.41
2023-01-27T01:11:17.325Z,41.52
2023-01-27T01:13:45.864Z,41.03
2023-01-27T01:16:14.861Z,40.95
2023-01-27T01:18:42.973Z,40.80
2023-01-27T01:21:11.194Z,41.12
2023-01-27T01:23:39.383Z,40.88
2023-01-27T01:26:10.341Z,40.77
2023-01-27T01:28:39.248Z,40.76
2023-01-27T01:31:08.375Z,41.46
2023-01-27T01:33:36.946Z,41.22
2023-01-27T01:36:07.002Z,40.73
2023-01-27T01:38:37.249Z,41.13
2023-01-27T01:41:05.764Z,41.46
2023-01-27T01:43:35.331Z,41.18
2023-01-27T01:46:04.445Z,40.86
2023-01-27T01:48:35.726Z,41.08
2023-01-27T01:51:08.436Z,41.31
2023-01-27T01:53:38.715Z,40.65
2023-01-27T01:56:09.862Z,41.26
2023-01-27T01:58:40.640Z,41.45
2023-01-27T02:01:09.103Z,41.38
2023-01-27T02:03:37.151Z,41.38
2023-01-27T02:06:07.186Z,40.40
2023-01-27T02:08:37.032Z,40.94
2023-01-27T02:11:06.502Z,41.12
2023-01-27T02:13:34.583Z,40.66
2023-01-27T02:16:05.776Z,40.80
2023-01-27T02:18:33.898Z,40.71
2023-01-27T02:21:02.072Z,41.11
2023-01-27T02:23:37.802Z,40.53
2023-01-27T02:26:09.323Z,41.27
2023-01-27T02:28:37.386Z,40.56
2023-01-27T02:31:05.890Z,40.67
2023-01-27T02:33:35.128Z,41.29
2023-01-27T02:36:05.077Z,40.87
2023-01-27T02:38:35.399Z,40.55
2023-01-27T02:41:06.112Z,41.05
2023-01-27T02:43:35.681Z,41.15
2023-01-27T02:46:03.774Z,40.76
2023-01-27T02:48:32.026Z,41.25
2023-01-27T02:51:00.726Z,40.70
2023-01-27T02:53:31.549Z,40.86
2023-01-27T02:55:59.687Z,40.48
2023-01-27T02:58:27.779Z,41.20
2023-01-27T03:01:02.203Z,40.66
2023-01-27T03:03:30.386Z,40.57
2023-01-27T03:05:58.834Z,40.48
2023-01-27T03:08:27.091Z,40.47
2023-01-27T03:10:56.087Z,40.89
2023-01-27T03:13:24.589Z,40.47
2023-01-27T03:16:12.740Z,41.09
2023-01-27T03:18:47.546Z,40.53
2023-01-27T03:21:16.058Z,40.77
2023-01-27T03:23:45.891Z,41.05
2023-01-27T03:26:15.470Z,40.43
2023-01-27T03:29:07.784Z,40.94
2023-01-27T03:31:39.157Z,40.73
2023-01-27T03:34:08.756Z,40.36
2023-01-27T03:37:03.166Z,41.06
2023-01-27T03:39:49.159Z,40.96
2023-01-27T03:42:34.613Z,40.51
2023-01-27T03:45:20.041Z,40.52
2023-01-27T03:47:48.330Z,40.35
2023-01-27T03:50:19.638Z,40.44
2023-01-27T03:53:03.422Z,40.94
2023-01-27T03:55:32.066Z,39.73
2023-01-27T03:58:18.084Z,40.10
2023-01-27T04:00:46.793Z,40.58
2023-01-27T04:03:32.071Z,40.11
2023-01-27T04:06:21.727Z,40.28
2023-01-27T04:08:49.962Z,40.18
2023-01-27T04:11:35.645Z,40.58
2023-01-27T04:14:04.101Z,40.59
2023-01-27T04:16:32.213Z,40.09
2023-01-27T04:19:00.392Z,40.46
2023-01-27T04:21:30.014Z,40.07
2023-01-27T04:23:58.214Z,39.82
2023-01-27T04:26:26.344Z,39.98
2023-01-27T04:28:54.483Z,40.46
2023-01-27T04:31:22.616Z,39.92
2023-01-27T04:33:50.863Z,40.54
2023-01-27T04:36:18.895Z,40.21
2023-01-27T04:38:48.791Z,39.88
2023-01-27T04:41:16.838Z,40.66
2023-01-27T04:43:44.957Z,40.69
2023-01-27T04:46:13.082Z,40.10
2023-01-27T04:48:41.401Z,40.72
2023-01-27T04:51:09.566Z,40.71
2023-01-27T04:53:37.620Z,40.15
2023-01-27T04:56:08.319Z,40.60
2023-01-27T04:58:36.487Z,40.08
2023-01-27T05:01:04.561Z,40.15
2023-01-27T05:03:32.717Z,40.32
2023-01-27T05:06:00.866Z,40.90
2023-01-27T05:08:28.994Z,40.86
2023-01-27T05:10:57.070Z,40.18
2023-01-27T05:13:26.520Z,40.83
2023-01-27T05:16:05.414Z,40.29
2023-01-27T05:18:33.566Z,40.88
2023-01-27T05:21:02.027Z,40.98
2023-01-27T05:23:39.073Z,40.72
2023-01-27T05:26:09.023Z,40.82
2023-01-27T05:28:38.925Z,40.62
2023-01-27T05:31:08.749Z,40.43
2023-01-27T05:33:37.010Z,41.04
2023-01-27T05:36:06.243Z,41.19
2023-01-27T05:38:34.514Z,40.92
2023-01-27T05:41:03.219Z,40.45
2023-01-27T05:43:31.623Z,40.72
2023-01-27T05:46:05.349Z,40.49
2023-01-27T05:48:33.559Z,41.00
2023-01-27T05:51:01.599Z,40.42
2023-01-27T05:53:29.716Z,41.14
2023-01-27T05:55:57.767Z,40.60
2023-01-27T05:58:26.045Z,41.17
2023-01-27T06:00:55.887Z,40.95
2023-01-27T06:03:25.403Z,40.75
2023-01-27T06:05:54.200Z,40.47
2023-01-27T06:08:22.788Z,40.42
2023-01-27T06:10:50.882Z,41.16
2023-01-27T06:13:20.171Z,40.91
2023-01-27T06:15:48.605Z,41.03
2023-01-27T06:18:17.065Z,40.80
2023-01-27T06:20:46.515Z,40.29
2023-01-27T06:23:15.839Z,40.52
2023-01-27T06:25:44.987Z,40.88
2023-01-27T06:28:27.751Z,40.64
2023-01-27T06:30:57.132Z,40.11
2023-01-27T06:33:25.269Z,40.04
2023-01-27T06:35:54.720Z,40.33
2023-01-27T06:38:22.791Z,40.04
2023-01-27T06:40:50.851Z,40.00
2023-01-27T06:43:19.005Z,40.17
2023-01-27T06:45:47.103Z,40.57
2023-01-27T06:48:15.235Z,39.88
2023-01-27T06:50:43.315Z,40.78
2023-01-27T06:53:12.782Z,39.80
2023-01-27T06:55:41.819Z,40.19
2023-01-27T06:58:10.500Z,40.63
2023-01-27T07:00:38.848Z,40.51
2023-01-27T07:03:07.016Z,40.46
2023-01-27T07:05:35.082Z,40.49
2023-01-27T07:08:03.242Z,40.14
2023-01-27T07:10:32.707Z,40.02
2023-01-27T07:13:07.362Z,39.89
2023-01-27T07:15:35.538Z,39.80
2023-01-27T07:18:03.679Z,39.54
2023-01-27T07:20:31.808Z,39.45
2023-01-27T07:22:59.871Z,39.85
2023-01-27T07:25:28.104Z,38.78
2023-01-27T07:27:58.090Z,39.69
2023-01-27T07:30:26.260Z,38.96
2023-01-27T07:32:55.280Z,39.29
2023-01-27T07:35:23.778Z,39.14
2023-01-27T07:37:51.829Z,39.29
2023-01-27T07:40:20.802Z,38.74
2023-01-27T07:42:48.959Z,38.87
2023-01-27T07:45:18.722Z,39.52
2023-01-27T07:47:46.875Z,38.82
2023-01-27T07:50:15.343Z,38.93
2023-01-27T07:52:44.923Z,39.08
2023-01-27T07:55:13.287Z,38.77
2023-01-27T07:57:41.583Z,38.86
2023-01-27T08:00:15.551Z,39.01
2023-01-27T08:02:45.139Z,38.72
2023-01-27T08:05:13.292Z,38.36
2023-01-27T08:07:41.435Z,38.54
2023-01-27T08:10:10.797Z,38.14
2023-01-27T08:12:39.062Z,38.49
2023-01-27T08:15:07.974Z,38.76
2023-01-27T08:17:36.048Z,38.51
2023-01-27T08:20:06.756Z,38.56
2023-01-27T08:22:34.910Z,38.13
2023-01-27T08:25:03.158Z,38.12
2023-01-27T08:27:31.362Z,37.98
2023-01-27T08:29:59.627Z,38.34
2023-01-27T08:32:27.821Z,38.47
2023-01-27T08:34:56.239Z,38.40
2023-01-27T08:37:25.705Z,37.70
2023-01-27T08:39:53.810Z,37.66
2023-01-27T08:42:21.921Z,37.82
2023-01-27T08:44:50.027Z,37.90
2023-01-27T08:47:18.175Z,38.20
2023-01-27T08:49:46.240Z,37.63
2023-01-27T08:52:14.336Z,37.73
2023-01-27T08:54:44.217Z,38.41
2023-01-27T08:57:12.312Z,37.84
2023-01-27T08:59:40.371Z,37.81
2023-01-27T09:02:08.449Z,38.23
2023-01-27T09:04:41.322Z,38.05
2023-01-27T09:07:09.451Z,38.12
2023-01-27T09:09:37.648Z,38.38
2023-01-27T09:12:07.447Z,38.24
2023-01-27T09:14:35.616Z,37.99
2023-01-27T09:17:03.658Z,38.31
2023-01-27T09:19:31.724Z,37.62
2023-01-27T09:21:59.803Z,37.84
2023-01-27T09:24:27.981Z,37.74
2023-01-27T09:26:56.100Z,38.16
2023-01-27T09:29:25.995Z,38.30
2023-01-27T09:31:54.252Z,37.54
2023-01-27T09:34:22.322Z,37.66
2023-01-27T09:36:51.993Z,37.68
2023-01-27T09:39:20.272Z,37.61
2023-01-27T09:42:16.866Z,38.09
2023-01-27T09:45:03.708Z,38.18
2023-01-27T09:47:58.291Z,38.19
2023-01-27T09:50:43.593Z,38.34
2023-01-27T09:53:59.768Z,38.94
2023-01-27T09:56:39.580Z,38.80
2023-01-27T09:59:16.380Z,38.95
2023-01-27T10:01:50.765Z,39.82
2023-01-27T10:04:35.632Z,39.12
2023-01-27T10:07:17.061Z,40.00
2023-01-27T10:10:09.495Z,40.11
2023-01-27T10:12:51.200Z,39.53
2023-01-27T10:15:26.076Z,39.92
2023-01-27T10:17:58.941Z,39.33
2023-01-27T10:20:30.317Z,39.27
2023-01-27T10:23:05.005Z,39.02
2023-01-27T10:25:38.789Z,39.54
2023-01-27T10:28:11.286Z,39.08
2023-01-27T10:30:39.521Z,39.86
2023-01-27T10:33:15.307Z,39.25
2023-01-27T10:35:46.395Z,39.44
2023-01-27T10:38:17.179Z,38.93
2023-01-27T10:40:48.382Z,39.36
2023-01-27T10:43:19.125Z,39.06
2023-01-27T10:45:50.613Z,38.75
2023-01-27T10:48:28.919Z,39.14
2023-01-27T10:50:58.802Z,38.95
2023-01-27T10:53:29.511Z,39.07
2023-01-27T10:56:00.432Z,39.14
2023-01-27T10:58:36.473Z,38.64
2023-01-27T11:01:20.955Z,39.04
2023-01-27T11:03:53.319Z,39.03
2023-01-27T11:06:24.793Z,38.57
2023-01-27T11:08:54.653Z,38.95
2023-01-27T11:11:40.903Z,38.86
2023-01-27T11:14:13.859Z,38.64
2023-01-27T11:16:42.217Z,38.97
2023-01-27T11:19:18.213Z,39.25
2023-01-27T11:21:55.409Z,38.78
2023-01-27T11:24:34.364Z,38.71
2023-01-27T11:27:05.305Z,38.67
2023-01-27T11:29:37.662Z,38.09
2023-01-27T11:32:09.620Z,38.47
2023-01-27T11:34:41.986Z,38.21
2023-01-27T11:37:17.589Z,38.19
2023-01-27T11:39:45.661Z,38.88
2023-01-27T11:42:13.769Z,38.54
2023-01-27T11:44:42.084Z,38.85
2023-01-27T11:47:10.880Z,38.93
2023-01-27T11:49:42.222Z,39.05
2023-01-27T11:52:12.153Z,38.13
2023-01-27T11:54:42.139Z,38.41
2023-01-27T11:57:16.458Z,38.12
2023-01-27T11:59:44.578Z,38.59
2023-01-27T12:02:19.766Z,38.26
2023-01-27T12:04:51.897Z,38.55
2023-01-27T12:07:23.374Z,38.61
2023-01-27T12:09:51.535Z,38.38
2023-01-27T12:12:22.985Z,38.83
2023-01-27T12:14:52.376Z,38.61
2023-01-27T12:17:24.364Z,39.17
2023-01-27T12:19:53.911Z,39.04
2023-01-27T12:22:25.499Z,39.20
2023-01-27T12:24:55.446Z,38.92
2023-01-27T12:27:24.703Z,38.86
2023-01-27T12:29:55.038Z,38.57
2023-01-27T12:32:24.915Z,38.66
2023-01-27T12:34:56.403Z,39.33
2023-01-27T12:37:25.391Z,38.63
2023-01-27T12:39:57.123Z,38.55
2023-01-27T12:42:36.106Z,39.17
2023-01-27T12:45:37.687Z,38.81
2023-01-27T12:48:20.087Z,39.07
2023-01-27T12:51:06.240Z,39.72
2023-01-27T12:53:34.322Z,39.75
2023-01-27T12:56:05.938Z,39.10
2023-01-27T12:58:36.301Z,39.29
2023-01-27T13:01:05.635Z,38.96
2023-01-27T13:03:38.067Z,39.55
2023-01-27T13:06:07.712Z,39.22
2023-01-27T13:08:35.851Z,39.71
2023-01-27T13:11:04.144Z,39.69
2023-01-27T13:13:32.206Z,39.06
2023-01-27T13:16:05.652Z,39.43
2023-01-27T13:18:34.731Z,39.48
2023-01-27T13:21:08.724Z,39.08
2023-01-27T13:23:38.988Z,39.40
2023-01-27T13:26:12.494Z,39.32
2023-01-27T13:28:52.072Z,39.53
2023-01-27T13:31:23.639Z,39.12
2023-01-27T13:33:52.854Z,39.14
2023-01-27T13:36:26.436Z,39.31
2023-01-27T13:38:58.608Z,39.43
2023-01-27T13:41:31.116Z,39.19
2023-01-27T13:44:03.236Z,39.42
2023-01-27T13:46:32.949Z,39.12
2023-01-27T13:49:03.722Z,39.53
2023-01-27T13:51:32.066Z,39.44
2023-01-27T13:54:02.416Z,38.80
2023-01-27T13:56:37.962Z,39.64
2023-01-27T13:59:09.934Z,39.46
2023-01-27T14:01:44.515Z,38.98
2023-01-27T14:04:33.594Z,39.75
2023-01-27T14:07:05.764Z,39.22
2023-01-27T14:09:47.937Z,39.82
2023-01-27T14:12:23.364Z,39.06
2023-01-27T14:14:58.741Z,39.49
2023-01-27T14:17:45.976Z,39.24
2023-01-27T14:20:39.759Z,39.62
2023-01-27T14:23:20.839Z,39.67
2023-01-27T14:25:55.932Z,40.00
2023-01-27T14:28:29.423Z,39.71
2023-01-27T14:30:59.191Z,39.41
2023-01-27T14:33:36.687Z,39.93
2023-01-27T14:36:13.406Z,40.06
2023-01-27T14:38:43.479Z,39.80
2023-01-27T14:41:15.566Z,39.96
2023-01-27T14:43:46.779Z,39.99
2023-01-27T14:46:20.887Z,39.64
2023-01-27T14:48:56.492Z,39.88
2023-01-27T14:51:30.624Z,40.01
2023-01-27T14:54:06.428Z,40.01
2023-01-27T14:56:41.968Z,40.23
2023-01-27T14:59:12.434Z,40.27
2023-01-27T15:01:44.449Z,40.21
2023-01-27T15:04:37.042Z,39.78
2023-01-27T15:07:10.195Z,39.91
2023-01-27T15:09:55.331Z,40.32
2023-01-27T15:12:35.326Z,39.56
2023-01-27T15:15:23.023Z,39.75
2023-01-27T15:17:58.950Z,40.19
2023-01-27T15:20:40.456Z,40.29
2023-01-27T15:23:35.185Z,39.83
2023-01-27T15:26:06.276Z,39.80
2023-01-27T15:28:37.915Z,40.08
2023-01-27T15:31:19.597Z,39.81
2023-01-27T15:33:51.326Z,39.72
2023-01-27T15:36:25.827Z,39.85
2023-01-27T15:39:00.842Z,39.62
2023-01-27T15:41:28.991Z,39.60
2023-01-27T15:44:16.559Z,39.24
2023-01-27T15:46:45.494Z,39.03
2023-01-27T15:49:18.406Z,39.54
2023-01-27T15:51:46.580Z,39.47
2023-01-27T15:54:17.824Z,38.85
2023-01-27T15:56:47.965Z,38.93
2023-01-27T15:59:19.331Z,39.24
2023-01-27T16:01:48.507Z,38.71
2023-01-27T16:04:17.767Z,39.22
2023-01-27T16:06:46.854Z,38.95
2023-01-27T16:09:20.743Z,39.32
2023-01-27T16:11:59.678Z,39.44
2023-01-27T16:14:55.336Z,38.96
2023-01-27T16:17:25.057Z,38.95
2023-01-27T16:20:06.563Z,39.07
2023-01-27T16:22:34.904Z,38.34
2023-01-27T16:25:12.178Z,38.76
2023-01-27T16:27:43.805Z,38.63
2023-01-27T16:30:18.265Z,38.48
2023-01-27T16:32:58.375Z,38.32
2023-01-27T16:35:26.529Z,38.56
2023-01-27T16:38:01.431Z,38.12
2023-01-27T16:40:29.703Z,38.51
2023-01-27T16:43:00.566Z,38.73
2023-01-27T16:45:32.148Z,38.26
2023-01-27T16:48:01.491Z,38.14
2023-01-27T16:50:33.049Z,38.46
2023-01-27T16:53:01.238Z,38.30
2023-01-27T16:55:29.338Z,38.53
2023-01-27T16:57:57.495Z,38.38
2023-01-27T17:00:27.260Z,38.71
2023-01-27T17:02:58.104Z,38.47
2023-01-27T17:05:26.277Z,38.12
2023-01-27T17:08:05.139Z,38.28
2023-01-27T17:10:35.065Z,38.91
2023-01-27T17:13:03.651Z,38.91
2023-01-27T17:15:35.003Z,38.92
2023-01-27T17:18:05.792Z,38.71
2023-01-27T17:20:40.114Z,38.53
2023-01-27T17:23:08.194Z,38.53
2023-01-27T17:25:36.955Z,38.59
2023-01-27T17:28:06.626Z,38.38
2023-01-27T17:30:35.478Z,38.75
2023-01-27T17:33:06.029Z,38.91
2023-01-27T17:35:35.070Z,38.48
2023-01-27T17:38:07.994Z,38.55
2023-01-27T17:40:37.508Z,38.81
2023-01-27T17:43:22.883Z,39.03
2023-01-27T17:46:10.447Z,38.87
2023-01-27T17:48:42.799Z,38.69
2023-01-27T17:51:12.915Z,38.66
2023-01-27T17:53:42.159Z,38.49
2023-01-27T17:56:15.543Z,38.58
2023-01-27T17:58:44.834Z,39.13
2023-01-27T18:01:13.441Z,38.80
2023-01-27T18:03:42.972Z,39.12
2023-01-27T18:06:12.622Z,39.13
2023-01-27T18:08:41.208Z,38.50
2023-01-27T18:11:10.078Z,39.15
2023-01-27T18:13:39.685Z,39.00
2023-01-27T18:16:15.165Z,38.83
2023-01-27T18:18:44.771Z,39.07
2023-01-27T18:21:18.482Z,38.75
2023-01-27T18:23:47.950Z,38.66
2023-01-27T18:26:18.765Z,38.67
2023-01-27T18:28:47.155Z,38.45
2023-01-27T18:31:18.104Z,38.16
2023-01-27T18:33:47.658Z,38.31
2023-01-27T18:36:23.212Z,38.66
2023-01-27T18:38:51.371Z,38.47
2023-01-27T18:41:24.743Z,38.53
2023-01-27T18:43:52.947Z,38.38
2023-01-27T18:46:20.987Z,38.74
2023-01-27T18:48:50.484Z,38.59
2023-01-27T18:51:18.819Z,38.90
2023-01-27T18:53:46.955Z,38.38
2023-01-27T18:56:15.352Z,39.06
2023-01-27T18:58:43.453Z,38.46
2023-01-27T19:01:15.893Z,39.01
2023-01-27T19:03:44.015Z,38.66
2023-01-27T19:06:16.287Z,38.60
2023-01-27T19:08:44.480Z,38.48
2023-01-27T19:11:15.960Z,38.67
2023-01-27T19:13:44.635Z,38.47
2023-01-27T19:16:14.774Z,38.30
2023-01-27T19:18:43.028Z,38.49
2023-01-27T19:21:14.384Z,38.15
2023-01-27T19:23:44.639Z,38.65
2023-01-27T19:26:17.431Z,38.73
2023-01-27T19:28:46.206Z,37.97
2023-01-27T19:31:14.508Z,38.73
2023-01-27T19:33:44.105Z,38.33
2023-01-27T19:36:22.382Z,38.02
2023-01-27T19:38:50.691Z,38.81
2023-01-27T19:41:18.765Z,37.98
2023-01-27T19:43:50.101Z,38.15
2023-01-27T19:46:21.320Z,38.32
2023-01-27T19:48:49.816Z,38.07
2023-01-27T19:51:18.909Z,38.61
2023-01-27T19:53:48.539Z,38.73
2023-01-27T19:56:17.771Z,38.15
2023-01-27T19:58:47.230Z,38.57
2023-01-27T20:01:15.387Z,38.14
2023-01-27T20:03:43.580Z,38.40
2023-01-27T20:06:16.046Z,38.65
2023-01-27T20:08:44.226Z,38.62
2023-01-27T20:11:32.416Z,38.32
2023-01-27T20:14:00.881Z,38.49
2023-01-27T20:16:29.356Z,38.22
2023-01-27T20:19:00.207Z,37.91
2023-01-27T20:21:28.717Z,38.05
2023-01-27T20:23:57.048Z,38.35
2023-01-27T20:26:27.023Z,38.14
2023-01-27T20:28:55.185Z,38.19
2023-01-27T20:31:23.640Z,38.27
2023-01-27T20:33:51.992Z,38.25
2023-01-27T20:36:21.458Z,38.54
2023-01-27T20:38:49.668Z,38.46
2023-01-27T20:41:18.840Z,38.86
2023-01-27T20:43:48.446Z,38.62
2023-01-27T20:46:17.570Z,38.11
2023-01-27T20:48:45.717Z,38.31
2023-01-27T20:51:14.702Z,38.51
2023-01-27T20:53:45.603Z,38.09
2023-01-27T20:56:14.488Z,38.49
2023-01-27T20:58:42.542Z,38.51
2023-01-27T21:01:12.760Z,38.14
2023-01-27T21:03:41.087Z,38.68
2023-01-27T21:06:09.479Z,38.10
2023-01-27T21:08:37.656Z,38.05
2023-01-27T21:11:06.881Z,38.66
2023-01-27T21:13:34.939Z,38.79
2023-01-27T21:16:03.186Z,38.04
2023-01-27T21:18:32.590Z,38.06
2023-01-27T21:21:02.667Z,38.04
2023-01-27T21:23:31.533Z,38.15
2023-01-27T21:26:03.932Z,38.74
2023-01-27T21:28:33.659Z,38.05
2023-01-27T21:31:06.530Z,38.72
2023-01-27T21:33:37.126Z,38.70
2023-01-27T21:36:05.746Z,38.27
2023-01-27T21:38:33.885Z,38.74
2023-01-27T21:41:05.791Z,38.08
2023-01-27T21:43:51.320Z,37.95
2023-01-27T21:46:19.609Z,38.28
2023-01-27T21:48:49.100Z,38.16
2023-01-27T21:51:17.178Z,38.47
2023-01-27T21:53:45.251Z,38.02
2023-01-27T21:56:13.366Z,38.79
2023-01-27T21:58:41.444Z,38.11
2023-01-27T22:01:10.184Z,38.28
2023-01-27T22:03:38.588Z,38.22
2023-01-27T22:06:08.923Z,38.68
2023-01-27T22:08:37.114Z,38.83
2023-01-27T22:11:05.382Z,38.72
2023-01-27T22:13:33.603Z,38.17
2023-01-27T22:16:01.863Z,38.83
2023-01-27T22:18:29.986Z,38.84
2023-01-27T22:20:58.083Z,38.51
2023-01-27T22:23:27.591Z,38.82
2023-01-27T22:25:55.651Z,38.14
2023-01-27T22:28:24.406Z,38.63
2023-01-27T22:30:52.467Z,38.84
2023-01-27T22:33:20.537Z,38.80
2023-01-27T22:35:48.627Z,38.21
2023-01-27T22:38:16.652Z,38.51
2023-01-27T22:40:46.139Z,38.36
2023-01-27T22:43:14.199Z,38.79
2023-01-27T22:45:42.539Z,38.11
2023-01-27T22:48:10.605Z,38.30
2023-01-27T22:50:40.598Z,38.09
2023-01-27T22:53:08.687Z,38.50
2023-01-27T22:55:36.774Z,38.21
2023-01-27T22:58:06.228Z,38.30
2023-01-27T23:00:34.341Z,38.76
2023-01-27T23:03:02.383Z,38.11
2023-01-27T23:05:30.494Z,38.23
2023-01-27T23:07:58.536Z,38.55
2023-01-27T23:10:26.798Z,38.42
2023-01-27T23:12:54.851Z,38.24
2023-01-27T23:15:24.329Z,38.80
2023-01-27T23:17:52.420Z,38.72
2023-01-27T23:20:20.621Z,38.13
2023-01-27T23:22:48.758Z,38.38
2023-01-27T23:25:17.340Z,38.34
2023-01-27T23:27:45.599Z,38.17
2023-01-27T23:30:14.443Z,38.25
2023-01-27T23:32:43.918Z,38.83
2023-01-27T23:35:12.237Z,38.87
2023-01-27T23:37:40.724Z,38.13
2023-01-27T23:40:10.092Z,38.73
2023-01-27T23:42:38.244Z,38.02
2023-01-27T23:45:06.969Z,38.52
2023-01-27T23:47:35.066Z,38.94
2023-01-27T23:50:05.397Z,38.43
2023-01-27T23:52:34.948Z,38.66
2023-01-27T23:55:03.032Z,38.56
2023-01-27T23:57:31.117Z,38.77
2023-01-27T23:59:59.260Z,38.01
